createdAt,value
2022-09-23T00:19:15.743Z,91.2
2022-09-23T00:39:08.631Z,90.5
2022-09-23T00:59:08.639Z,91
2022-09-23T01:19:08.657Z,91.5
2022-09-23T01:39:08.598Z,91.5
2022-09-23T01:59:08.480Z,91.7
2022-09-23T02:19:08.445Z,91.7
2022-09-23T02:59:08.570Z,92
2022-09-23T03:19:08.370Z,92.4
2022-09-23T03:39:08.444Z,92.1
2022-09-23T03:59:08.374Z,92.8
2022-09-23T04:19:11.387Z,93
2022-09-23T04:39:08.348Z,92.5
2022-09-23T04:59:15.244Z,92.8
2022-09-23T05:19:08.401Z,92.6
2022-09-23T05:39:08.704Z,85.2
2022-09-23T05:59:08.156Z,77.1
2022-09-23T06:19:08.092Z,71.5
2022-09-23T06:39:08.058Z,72.7
2022-09-23T06:59:08.039Z,75.5
2022-09-23T07:19:08.084Z,73.2
2022-09-23T07:39:14.971Z,64.3
2022-09-23T07:59:08.044Z,58.4
2022-09-23T08:39:07.780Z,58
2022-09-23T09:19:07.829Z,56.3
2022-09-23T10:19:07.511Z,43.4
2022-09-23T10:39:07.590Z,47.2
2022-09-23T10:59:07.451Z,45.5
2022-09-23T11:19:07.444Z,45.9
2022-09-23T12:19:07.228Z,45.5
2022-09-23T12:59:07.163Z,45
2022-09-23T13:19:07.101Z,45.3
2022-09-23T13:59:07.014Z,41.8
2022-09-23T14:19:06.988Z,44
2022-09-23T14:39:06.893Z,45.5
2022-09-23T14:59:06.947Z,46.6
2022-09-23T15:39:06.795Z,59
2022-09-23T15:59:06.716Z,64
2022-09-23T16:19:07.080Z,67.7
2022-09-23T16:39:06.717Z,71.6
2022-09-23T17:19:06.681Z,77.9
2022-09-23T17:39:13.521Z,80.8
2022-09-23T17:59:06.689Z,81.9
2022-09-23T18:19:06.463Z,82.9
2022-09-23T18:39:06.415Z,84.7
2022-09-23T18:59:06.339Z,85.2
2022-09-23T19:19:06.280Z,86
2022-09-23T19:39:06.294Z,85.6
2022-09-23T19:59:06.198Z,86.6
2022-09-23T20:19:06.210Z,88.2
2022-09-23T20:39:06.219Z,88.2
2022-09-23T20:59:06.111Z,88.1
2022-09-23T21:19:13.098Z,88.2
2022-09-23T21:39:06.305Z,88.5
2022-09-23T21:59:05.951Z,88.4
2022-09-23T22:19:12.924Z,87.3
2022-09-23T22:39:05.937Z,87.1
2022-09-23T23:19:05.838Z,87.3
2022-09-23T23:39:05.951Z,87.9
2022-09-23T23:59:05.745Z,88.6
